Time;durP1;ratioP1;P1;durP2;ratioP2;P2;SDS_P1;SDS_P2;PMS_P1;PMS_P2;Temp;Humidity;BMP_temperature;BMP_pressure;BME280_temperature;BME280_humidity;BME280_pressure;Samples;Min_cycle;Max_cycle;Signal;HPM_P1;HPM_P2
2022/08/31 00:04:31;;;;;;;3.40;1.90;;;;;;;;;;6188825;23;20181;-83
2022/08/31 00:06:59;;;;;;;0.87;0.87;;;;;;;;;;6188956;23;20203;-84
2022/08/31 00:09:29;;;;;;;3.03;0.80;;;;;;;;;;6188899;23;20193;-83
2022/08/31 00:11:59;;;;;;;0.50;0.50;;;;;;;;;;6188935;23;20273;-83
2022/08/31 00:14:28;;;;;;;0.60;0.60;;;;;;;;;;6188601;23;20175;-83
2022/08/31 00:16:57;;;;;;;0.50;0.50;;;;;;;;;;6215303;23;20174;-83
2022/08/31 00:19:26;;;;;;;1.10;1.10;;;;;;;;;;6189000;23;20179;-83
2022/08/31 00:21:55;;;;;;;0.73;0.73;;;;;;;;;;6191044;23;20181;-83
2022/08/31 00:24:23;;;;;;;3.73;1.10;;;;;;;;;;6190976;23;20229;-83
2022/08/31 00:26:51;;;;;;;0.63;0.63;;;;;;;;;;6217264;23;20204;-83
2022/08/31 00:29:20;;;;;;;0.97;0.93;;;;;;;;;;6190896;23;20182;-83
2022/08/31 00:31:48;;;;;;;1.87;1.23;;;;;;;;;;6216268;23;20174;-83
2022/08/31 00:34:18;;;;;;;0.87;0.87;;;;;;;;;;6190746;23;20178;-83
2022/08/31 00:36:47;;;;;;;1.10;1.00;;;;;;;;;;6217042;23;20196;-83
2022/08/31 00:39:15;;;;;;;1.10;1.10;;;;;;;;;;6217149;23;20175;-83
2022/08/31 00:41:44;;;;;;;1.23;0.90;;;;;;;;;;6190949;23;20237;-83
2022/08/31 00:44:13;;;;;;;1.27;1.17;;;;;;;;;;6216636;23;20278;-83
2022/08/31 00:46:42;;;;;;;0.80;0.80;;;;;;;;;;6190197;23;20280;-83
2022/08/31 00:49:12;;;;;;;0.60;0.60;;;;;;;;;;6190450;23;20185;-83
2022/08/31 00:51:44;;;;;;;0.87;0.87;;;;;;;;;;6190858;23;20182;-83
2022/08/31 00:54:13;;;;;;;0.63;0.63;;;;;;;;;;6190829;23;20183;-83
2022/08/31 00:56:43;;;;;;;0.67;0.67;;;;;;;;;;6190486;23;20173;-84
2022/08/31 00:59:12;;;;;;;0.50;0.50;;;;;;;;;;6217081;23;20256;-83
2022/08/31 01:01:41;;;;;;;2.63;0.90;;;;;;;;;;6190430;23;20245;-83
2022/08/31 01:04:10;;;;;;;0.97;0.87;;;;;;;;;;6190075;23;20174;-83
2022/08/31 01:06:38;;;;;;;0.83;0.80;;;;;;;;;;6216369;23;20195;-83
2022/08/31 01:09:09;;;;;;;0.80;0.80;;;;;;;;;;6216715;23;20166;-83
2022/08/31 01:11:39;;;;;;;1.00;0.80;;;;;;;;;;6190697;23;20228;-83
2022/08/31 01:14:08;;;;;;;1.00;0.97;;;;;;;;;;6216807;23;20173;-83
2022/08/31 01:16:38;;;;;;;3.47;3.30;;;;;;;;;;6190321;23;20220;-83
2022/08/31 01:19:12;;;;;;;0.60;0.60;;;;;;;;;;6190062;23;20184;-83
2022/08/31 01:21:43;;;;;;;1.33;0.90;;;;;;;;;;6190731;23;20181;-83
2022/08/31 01:24:14;;;;;;;0.77;0.77;;;;;;;;;;6190069;23;20177;-84
2022/08/31 01:26:43;;;;;;;1.00;1.00;;;;;;;;;;6216572;23;20304;-83
2022/08/31 01:29:22;;;;;;;0.80;0.80;;;;;;;;;;6216817;23;20176;-83
2022/08/31 01:31:50;;;;;;;0.80;0.80;;;;;;;;;;6216492;23;20339;-83
2022/08/31 01:34:19;;;;;;;0.60;0.60;;;;;;;;;;6190482;23;20185;-84
2022/08/31 01:36:48;;;;;;;1.40;1.30;;;;;;;;;;6189831;23;20198;-83
2022/08/31 01:39:18;;;;;;;0.70;0.70;;;;;;;;;;6190114;23;20209;-83
2022/08/31 01:41:46;;;;;;;0.60;0.60;;;;;;;;;;6216345;23;20170;-83
2022/08/31 01:44:16;;;;;;;0.63;0.63;;;;;;;;;;6216458;23;20279;-83
2022/08/31 01:46:45;;;;;;;0.40;0.40;;;;;;;;;;6190313;23;20247;-83
2022/08/31 01:49:14;;;;;;;0.50;0.50;;;;;;;;;;6215908;23;20176;-83
2022/08/31 01:51:42;;;;;;;0.63;0.63;;;;;;;;;;6190039;23;20181;-83
2022/08/31 01:54:11;;;;;;;0.40;0.40;;;;;;;;;;6216382;23;20179;-83
2022/08/31 01:56:42;;;;;;;0.63;0.63;;;;;;;;;;6189957;23;20213;-83
2022/08/31 01:59:11;;;;;;;7.43;0.73;;;;;;;;;;6189826;23;20233;-83
2022/08/31 02:01:40;;;;;;;0.87;0.70;;;;;;;;;;6189723;23;20238;-83
2022/08/31 02:04:10;;;;;;;0.60;0.60;;;;;;;;;;6189176;23;20182;-83
2022/08/31 02:06:41;;;;;;;1.10;1.00;;;;;;;;;;6190089;23;20193;-84
2022/08/31 02:09:10;;;;;;;0.60;0.60;;;;;;;;;;6189395;23;20178;-84
2022/08/31 02:11:39;;;;;;;1.10;1.10;;;;;;;;;;6189848;23;20178;-83
2022/08/31 02:14:09;;;;;;;0.50;0.50;;;;;;;;;;6216095;23;20174;-83
2022/08/31 02:16:37;;;;;;;0.80;0.80;;;;;;;;;;6190395;23;20170;-83
2022/08/31 02:19:06;;;;;;;1.17;1.17;;;;;;;;;;6189631;23;20181;-83
2022/08/31 02:21:36;;;;;;;1.33;1.33;;;;;;;;;;6189825;23;20241;-83
2022/08/31 02:24:04;;;;;;;0.60;0.60;;;;;;;;;;6189802;23;20178;-83
2022/08/31 02:26:33;;;;;;;1.93;1.23;;;;;;;;;;6189187;23;20195;-83
2022/08/31 02:29:02;;;;;;;1.50;1.40;;;;;;;;;;6190078;23;20215;-83
2022/08/31 02:31:31;;;;;;;1.00;1.00;;;;;;;;;;6189776;23;20192;-84
2022/08/31 02:34:00;;;;;;;0.90;0.90;;;;;;;;;;6215716;23;20205;-84
2022/08/31 02:36:30;;;;;;;1.30;0.97;;;;;;;;;;6215586;23;20194;-83
2022/08/31 02:39:02;;;;;;;0.80;0.80;;;;;;;;;;6216010;23;20206;-83
2022/08/31 02:41:32;;;;;;;1.07;1.07;;;;;;;;;;6189200;23;20273;-83
2022/08/31 02:44:02;;;;;;;1.33;0.97;;;;;;;;;;6215334;23;20205;-83
2022/08/31 02:46:32;;;;;;;1.10;1.00;;;;;;;;;;6189233;23;20197;-83
2022/08/31 02:49:01;;;;;;;0.60;0.60;;;;;;;;;;6189480;23;20224;-83
2022/08/31 02:51:31;;;;;;;1.53;1.13;;;;;;;;;;6216014;23;20173;-83
2022/08/31 02:54:00;;;;;;;0.73;0.73;;;;;;;;;;6189412;23;20184;-83
2022/08/31 02:56:28;;;;;;;2.07;0.77;;;;;;;;;;6189895;23;20169;-83
2022/08/31 02:58:57;;;;;;;1.57;1.40;;;;;;;;;;6189509;23;20181;-84
2022/08/31 03:01:26;;;;;;;0.90;0.90;;;;;;;;;;6215793;23;20177;-83
2022/08/31 03:03:57;;;;;;;0.73;0.73;;;;;;;;;;6189399;23;20235;-84
2022/08/31 03:06:25;;;;;;;0.77;0.77;;;;;;;;;;6189182;23;20260;-83
2022/08/31 03:08:53;;;;;;;1.13;1.13;;;;;;;;;;6189491;23;20182;-83
2022/08/31 03:11:22;;;;;;;0.80;0.80;;;;;;;;;;6189819;23;20285;-83
2022/08/31 03:13:50;;;;;;;1.13;0.77;;;;;;;;;;6215156;23;20181;-83
2022/08/31 03:16:25;;;;;;;2.07;0.87;;;;;;;;;;6189382;23;20197;-84
2022/08/31 03:18:53;;;;;;;0.53;0.53;;;;;;;;;;6189289;23;20174;-83
2022/08/31 03:21:23;;;;;;;1.27;1.23;;;;;;;;;;6216020;23;20181;-83
2022/08/31 03:23:51;;;;;;;1.40;0.90;;;;;;;;;;6189268;23;20175;-83
2022/08/31 03:26:20;;;;;;;0.87;0.87;;;;;;;;;;6188970;23;20182;-83
2022/08/31 03:28:48;;;;;;;3.20;1.00;;;;;;;;;;6189134;23;20188;-83
2022/08/31 03:31:20;;;;;;;1.67;1.57;;;;;;;;;;6188748;23;20182;-83
2022/08/31 03:33:48;;;;;;;0.67;0.67;;;;;;;;;;6215431;23;20174;-84
2022/08/31 03:36:17;;;;;;;1.13;1.13;;;;;;;;;;6188723;23;20201;-83
2022/08/31 03:38:47;;;;;;;0.60;0.60;;;;;;;;;;6215691;23;20174;-83
2022/08/31 03:41:16;;;;;;;0.50;0.50;;;;;;;;;;6215328;23;20177;-83
2022/08/31 03:43:47;;;;;;;2.53;0.93;;;;;;;;;;6215358;23;20209;-83
2022/08/31 03:46:15;;;;;;;0.50;0.50;;;;;;;;;;6215290;23;20265;-83
2022/08/31 03:48:46;;;;;;;1.17;1.07;;;;;;;;;;6188945;23;20204;-84
2022/08/31 03:51:15;;;;;;;0.77;0.77;;;;;;;;;;6215025;23;20178;-83
2022/08/31 03:53:43;;;;;;;0.57;0.57;;;;;;;;;;6190022;23;20185;-83
2022/08/31 03:56:13;;;;;;;0.40;0.40;;;;;;;;;;6191130;23;20201;-83
2022/08/31 03:58:42;;;;;;;1.77;1.00;;;;;;;;;;6191259;23;20177;-83
2022/08/31 04:01:11;;;;;;;0.57;0.57;;;;;;;;;;6191045;23;20174;-83
2022/08/31 04:03:40;;;;;;;1.13;1.13;;;;;;;;;;6191020;23;20180;-83
2022/08/31 04:06:11;;;;;;;0.70;0.70;;;;;;;;;;6190649;23;20174;-83
2022/08/31 04:08:40;;;;;;;0.80;0.80;;;;;;;;;;6190832;23;20197;-83
2022/08/31 04:11:10;;;;;;;0.80;0.80;;;;;;;;;;6217680;23;20170;-83
2022/08/31 04:13:40;;;;;;;0.77;0.70;;;;;;;;;;6190863;23;20184;-83
2022/08/31 04:16:10;;;;;;;0.50;0.50;;;;;;;;;;6217680;23;20236;-83
2022/08/31 04:18:39;;;;;;;0.77;0.77;;;;;;;;;;6191064;23;20177;-84
2022/08/31 04:21:11;;;;;;;0.77;0.77;;;;;;;;;;6191795;23;20178;-83
2022/08/31 04:23:40;;;;;;;0.70;0.70;;;;;;;;;;6191593;23;20178;-84
2022/08/31 04:26:18;;;;;;;0.90;0.90;;;;;;;;;;6191804;23;20188;-83
2022/08/31 04:28:48;;;;;;;0.73;0.73;;;;;;;;;;6191252;23;20197;-84
2022/08/31 04:31:17;;;;;;;0.50;0.50;;;;;;;;;;6191873;23;20187;-83
2022/08/31 04:33:45;;;;;;;0.60;0.60;;;;;;;;;;6191173;23;20185;-83
2022/08/31 04:36:15;;;;;;;0.70;0.70;;;;;;;;;;6191455;23;20201;-83
2022/08/31 04:38:44;;;;;;;0.80;0.80;;;;;;;;;;6191775;23;20177;-84
2022/08/31 04:41:13;;;;;;;0.90;0.90;;;;;;;;;;6191568;23;20193;-83
2022/08/31 04:43:44;;;;;;;0.70;0.70;;;;;;;;;;6191150;23;20206;-83
2022/08/31 04:46:14;;;;;;;0.83;0.83;;;;;;;;;;6191119;23;20181;-83
2022/08/31 04:48:43;;;;;;;0.73;0.73;;;;;;;;;;6191568;23;20222;-83
2022/08/31 04:51:12;;;;;;;0.50;0.50;;;;;;;;;;6191820;23;20208;-84
2022/08/31 04:53:41;;;;;;;0.70;0.70;;;;;;;;;;6217754;23;20181;-83
2022/08/31 04:56:13;;;;;;;0.73;0.73;;;;;;;;;;6191410;23;20240;-81
2022/08/31 04:58:42;;;;;;;0.60;0.60;;;;;;;;;;6191333;23;20178;-83
2022/08/31 05:01:12;;;;;;;0.70;0.70;;;;;;;;;;6217549;23;20180;-84
2022/08/31 05:03:42;;;;;;;0.50;0.50;;;;;;;;;;6191468;23;20184;-83
2022/08/31 05:06:13;;;;;;;0.70;0.70;;;;;;;;;;6216786;23;20247;-83
2022/08/31 05:08:42;;;;;;;0.70;0.70;;;;;;;;;;6216613;23;20193;-84
2022/08/31 05:11:11;;;;;;;0.80;0.80;;;;;;;;;;6190183;23;20181;-83
2022/08/31 05:13:39;;;;;;;0.40;0.40;;;;;;;;;;6216951;23;20188;-83
2022/08/31 05:16:09;;;;;;;0.60;0.60;;;;;;;;;;6190064;23;20261;-83
2022/08/31 05:18:38;;;;;;;0.60;0.60;;;;;;;;;;6216336;23;20170;-83
2022/08/31 05:21:12;;;;;;;0.60;0.60;;;;;;;;;;6190110;23;20258;-83
2022/08/31 05:23:42;;;;;;;1.80;0.77;;;;;;;;;;6190391;23;20202;-83
2022/08/31 05:26:16;;;;;;;0.60;0.60;;;;;;;;;;6190286;23;20227;-83
2022/08/31 05:28:44;;;;;;;0.70;0.70;;;;;;;;;;6190066;23;20220;-83
2022/08/31 05:31:13;;;;;;;0.57;0.57;;;;;;;;;;6216259;23;20173;-83
2022/08/31 05:33:42;;;;;;;0.60;0.60;;;;;;;;;;6190215;23;20217;-83
2022/08/31 05:36:13;;;;;;;0.80;0.80;;;;;;;;;;6189443;23;20228;-83
2022/08/31 05:38:41;;;;;;;0.70;0.70;;;;;;;;;;6190138;23;20170;-83
2022/08/31 05:41:10;;;;;;;4.20;1.13;;;;;;;;;;6189746;23;20181;-83
2022/08/31 05:43:39;;;;;;;0.60;0.60;;;;;;;;;;6189616;23;20202;-82
2022/08/31 05:46:07;;;;;;;0.60;0.60;;;;;;;;;;6189979;23;20178;-82
2022/08/31 05:48:37;;;;;;;0.80;0.60;;;;;;;;;;6216185;23;20194;-82
2022/08/31 05:51:09;;;;;;;0.70;0.70;;;;;;;;;;6189858;23;20186;-82
2022/08/31 05:53:41;;;;;;;1.60;0.53;;;;;;;;;;6189848;23;20260;-82
2022/08/31 05:56:10;;;;;;;0.53;0.53;;;;;;;;;;6216852;23;20197;-83
2022/08/31 05:58:40;;;;;;;0.80;0.80;;;;;;;;;;6194168;23;20174;-83
2022/08/31 06:01:15;;;;;;;0.60;0.60;;;;;;;;;;6190919;23;20264;-82
2022/08/31 06:03:44;;;;;;;0.93;0.60;;;;;;;;;;6189499;23;20208;-83
2022/08/31 06:06:13;;;;;;;0.70;0.70;;;;;;;;;;6189438;23;20186;-83
2022/08/31 06:08:43;;;;;;;0.50;0.50;;;;;;;;;;6215762;23;20193;-83
2022/08/31 06:11:17;;;;;;;1.57;1.20;;;;;;;;;;6189897;23;20220;-83
2022/08/31 06:13:46;;;;;;;0.83;0.83;;;;;;;;;;6190130;23;20214;-82
2022/08/31 06:16:16;;;;;;;0.70;0.70;;;;;;;;;;6216199;23;20191;-82
2022/08/31 06:18:49;;;;;;;0.60;0.60;;;;;;;;;;6215581;23;20173;-82
2022/08/31 06:21:19;;;;;;;0.70;0.70;;;;;;;;;;6189389;23;20188;-82
2022/08/31 06:23:50;;;;;;;0.50;0.50;;;;;;;;;;6189082;23;20180;-82
2022/08/31 06:26:20;;;;;;;0.57;0.57;;;;;;;;;;6189617;23;20238;-83
2022/08/31 06:28:49;;;;;;;0.83;0.70;;;;;;;;;;6189746;23;20262;-82
2022/08/31 06:31:22;;;;;;;0.60;0.60;;;;;;;;;;6189410;23;20269;-82
2022/08/31 06:33:52;;;;;;;0.50;0.50;;;;;;;;;;6189291;23;20178;-82
2022/08/31 06:36:21;;;;;;;0.73;0.73;;;;;;;;;;6189546;23;20202;-82
2022/08/31 06:38:51;;;;;;;0.80;0.80;;;;;;;;;;6189899;23;20200;-81
2022/08/31 06:41:21;;;;;;;0.97;0.97;;;;;;;;;;6189679;23;20188;-81
2022/08/31 06:43:49;;;;;;;1.50;0.63;;;;;;;;;;6189334;23;20237;-81
2022/08/31 06:46:18;;;;;;;0.60;0.60;;;;;;;;;;6189169;23;20181;-82
2022/08/31 06:48:49;;;;;;;1.20;1.10;;;;;;;;;;6189283;23;20195;-82
2022/08/31 06:51:18;;;;;;;0.70;0.70;;;;;;;;;;6189231;23;20181;-81
2022/08/31 06:53:46;;;;;;;0.80;0.80;;;;;;;;;;6189421;23;20184;-81
2022/08/31 06:56:17;;;;;;;0.90;0.90;;;;;;;;;;6188853;23;20185;-82
2022/08/31 06:58:51;;;;;;;0.50;0.50;;;;;;;;;;6189516;23;20175;-83
2022/08/31 07:01:23;;;;;;;0.93;0.93;;;;;;;;;;6189458;23;20181;-82
2022/08/31 07:04:04;;;;;;;0.70;0.70;;;;;;;;;;6189315;23;20182;-82
2022/08/31 07:06:35;;;;;;;1.03;1.03;;;;;;;;;;6189554;23;20228;-82
2022/08/31 07:09:09;;;;;;;0.80;0.73;;;;;;;;;;6188827;23;20191;-82
2022/08/31 07:11:40;;;;;;;0.70;0.70;;;;;;;;;;6189663;23;20200;-83
2022/08/31 07:14:13;;;;;;;0.87;0.70;;;;;;;;;;6188917;23;20186;-83
2022/08/31 07:16:42;;;;;;;0.83;0.83;;;;;;;;;;6189204;23;20185;-83
2022/08/31 07:19:11;;;;;;;1.30;1.07;;;;;;;;;;6189070;23;20230;-83
2022/08/31 07:21:41;;;;;;;0.67;0.67;;;;;;;;;;6188802;23;20184;-83
2022/08/31 07:24:10;;;;;;;0.90;0.80;;;;;;;;;;6189424;23;20185;-83
2022/08/31 07:26:41;;;;;;;0.60;0.60;;;;;;;;;;6188718;23;20174;-83
2022/08/31 07:29:11;;;;;;;0.90;0.90;;;;;;;;;;6188942;23;20277;-82
2022/08/31 07:31:43;;;;;;;1.07;0.93;;;;;;;;;;6189242;23;20174;-83
2022/08/31 07:34:12;;;;;;;1.20;0.80;;;;;;;;;;6215500;23;20170;-82
2022/08/31 07:42:19;;;;;;;2.20;0.90;;;;;;;;;;6190622;23;20178;-88
2022/08/31 07:44:49;;;;;;;0.93;0.93;;;;;;;;;;6215308;23;20205;-87
2022/08/31 07:47:20;;;;;;;1.63;0.90;;;;;;;;;;6188544;23;20185;-85
2022/08/31 07:49:52;;;;;;;1.10;1.00;;;;;;;;;;6182210;23;20198;-84
2022/08/31 07:52:24;;;;;;;0.83;0.83;;;;;;;;;;6186588;23;20189;-85
2022/08/31 07:54:54;;;;;;;0.77;0.77;;;;;;;;;;6188172;23;20178;-86
2022/08/31 07:57:28;;;;;;;0.60;0.60;;;;;;;;;;6187053;23;20175;-84
2022/08/31 08:00:07;;;;;;;0.80;0.80;;;;;;;;;;6189463;23;20260;-85
2022/08/31 08:02:40;;;;;;;0.90;0.90;;;;;;;;;;6188940;23;20198;-85
2022/08/31 08:05:09;;;;;;;0.80;0.80;;;;;;;;;;6190305;23;20205;-84
2022/08/31 08:07:39;;;;;;;0.70;0.70;;;;;;;;;;6188313;23;20235;-85
2022/08/31 08:10:12;;;;;;;0.70;0.70;;;;;;;;;;6190187;23;20201;-84
2022/08/31 08:12:45;;;;;;;4.67;0.87;;;;;;;;;;6188618;23;20178;-86
2022/08/31 08:15:14;;;;;;;1.70;1.17;;;;;;;;;;6214456;23;20200;-83
2022/08/31 08:17:42;;;;;;;0.70;0.70;;;;;;;;;;6187632;23;20183;-84
2022/08/31 08:20:11;;;;;;;2.57;0.77;;;;;;;;;;6214728;23;20198;-84
2022/08/31 08:22:42;;;;;;;2.63;1.00;;;;;;;;;;6188224;23;20204;-84
2022/08/31 08:25:22;;;;;;;1.60;0.70;;;;;;;;;;6188174;23;20229;-83
2022/08/31 08:28:04;;;;;;;1.87;1.13;;;;;;;;;;6188001;23;20180;-83
2022/08/31 08:31:02;;;;;;;1.13;0.53;;;;;;;;;;6188081;23;20196;-83
2022/08/31 08:33:37;;;;;;;1.17;0.90;;;;;;;;;;6187457;23;20179;-84
2022/08/31 08:36:18;;;;;;;2.40;1.40;;;;;;;;;;6187736;23;20204;-84
2022/08/31 08:38:50;;;;;;;1.10;1.00;;;;;;;;;;6187648;23;20177;-83
2022/08/31 08:41:21;;;;;;;0.93;0.87;;;;;;;;;;6189395;23;20278;-87
2022/08/31 08:43:52;;;;;;;0.97;0.93;;;;;;;;;;6188009;23;20218;-86
2022/08/31 08:46:28;;;;;;;2.00;1.13;;;;;;;;;;6189387;23;20178;-87
2022/08/31 08:49:10;;;;;;;0.90;0.90;;;;;;;;;;6189377;23;20178;-87
2022/08/31 08:51:39;;;;;;;1.00;1.00;;;;;;;;;;6189511;23;20205;-87
2022/08/31 08:54:30;;;;;;;1.80;0.93;;;;;;;;;;6192778;23;20185;-87
2022/08/31 08:56:59;;;;;;;1.17;1.07;;;;;;;;;;6190800;23;20174;-87
2022/08/31 08:59:44;;;;;;;1.00;0.90;;;;;;;;;;6191497;23;20175;-86
2022/08/31 09:02:27;;;;;;;0.83;0.83;;;;;;;;;;6189912;23;20176;-85
2022/08/31 09:05:09;;;;;;;1.77;1.27;;;;;;;;;;6192715;23;20181;-86
2022/08/31 09:07:46;;;;;;;1.17;0.93;;;;;;;;;;6194314;23;20182;-87
2022/08/31 09:10:23;;;;;;;2.43;1.07;;;;;;;;;;6190056;23;20202;-87
2022/08/31 09:13:02;;;;;;;1.33;1.20;;;;;;;;;;6192098;23;20288;-87
2022/08/31 09:16:09;;;;;;;0.77;0.77;;;;;;;;;;6191302;23;20204;-89
2022/08/31 09:18:46;;;;;;;2.97;1.23;;;;;;;;;;6133721;23;20180;-85
2022/08/31 09:21:20;;;;;;;4.63;1.30;;;;;;;;;;6194054;23;20166;-85
2022/08/31 09:24:00;;;;;;;0.90;0.90;;;;;;;;;;6192629;23;20206;-85
2022/08/31 09:26:50;;;;;;;1.23;1.03;;;;;;;;;;6193239;23;20265;-85
2022/08/31 09:29:23;;;;;;;2.07;1.07;;;;;;;;;;6193107;23;20200;-85
2022/08/31 09:32:02;;;;;;;3.03;1.30;;;;;;;;;;6194340;23;20264;-85
2022/08/31 09:34:47;;;;;;;1.33;1.23;;;;;;;;;;6196858;23;20214;-85
2022/08/31 09:37:20;;;;;;;1.83;1.27;;;;;;;;;;6194181;23;20212;-85
2022/08/31 09:39:57;;;;;;;2.33;1.20;;;;;;;;;;6197475;23;20174;-85
2022/08/31 09:42:39;;;;;;;2.63;1.20;;;;;;;;;;6204611;23;20244;-86
2022/08/31 09:45:30;;;;;;;2.50;1.27;;;;;;;;;;6199854;23;20202;-85
2022/08/31 09:48:00;;;;;;;2.17;1.17;;;;;;;;;;6199597;23;20253;-86
2022/08/31 09:50:39;;;;;;;1.10;1.00;;;;;;;;;;6200921;23;20214;-86
2022/08/31 09:56:15;;;;;;;1.17;1.00;;;;;;;;;;6190644;23;20205;-83
2022/08/31 09:58:45;;;;;;;1.30;0.97;;;;;;;;;;6190719;23;20190;-84
2022/08/31 10:01:23;;;;;;;1.27;1.20;;;;;;;;;;6189363;23;20180;-84
2022/08/31 10:04:08;;;;;;;1.87;1.30;;;;;;;;;;6189635;23;20186;-85
2022/08/31 10:06:48;;;;;;;2.30;1.00;;;;;;;;;;6189821;23;20174;-85
2022/08/31 10:09:35;;;;;;;2.83;0.87;;;;;;;;;;6192222;23;20181;-85
2022/08/31 10:12:12;;;;;;;2.13;1.10;;;;;;;;;;6189644;23;20218;-84
2022/08/31 10:14:51;;;;;;;5.73;1.23;;;;;;;;;;6188752;23;20176;-84
2022/08/31 10:17:27;;;;;;;1.60;1.03;;;;;;;;;;6189183;23;20177;-85
2022/08/31 10:20:05;;;;;;;1.47;1.00;;;;;;;;;;6190034;23;20174;-85
2022/08/31 10:22:37;;;;;;;1.37;0.70;;;;;;;;;;6192239;23;20234;-85
2022/08/31 10:25:14;;;;;;;1.60;0.80;;;;;;;;;;6189961;23;20239;-85
2022/08/31 10:28:04;;;;;;;;;;;;;;;;;;;;;
2022/08/31 10:31:32;;;;;;;;;;;;;;;;;;;;;
2022/08/31 10:38:48;;;;;;;;;;;;;;;;;;;;;
2022/08/31 10:41:52;;;;;;;2.40;0.87;;;;;;;;;;6184859;23;20262;-84
2022/08/31 10:44:31;;;;;;;0.53;0.50;;;;;;;;;;6192122;23;20303;-84
2022/08/31 10:47:04;;;;;;;0.97;0.93;;;;;;;;;;6192745;23;20175;-85
2022/08/31 10:49:38;;;;;;;1.03;0.83;;;;;;;;;;6188160;23;20285;-85
2022/08/31 10:52:22;;;;;;;3.30;1.20;;;;;;;;;;6191603;23;20233;-85
2022/08/31 10:55:05;;;;;;;0.93;0.80;;;;;;;;;;6191358;23;20178;-85
2022/08/31 10:57:37;;;;;;;0.70;0.70;;;;;;;;;;6190362;23;20178;-84
2022/08/31 11:00:08;;;;;;;1.17;0.87;;;;;;;;;;6214324;23;20170;-85
2022/08/31 11:03:07;;;;;;;1.60;0.70;;;;;;;;;;6188225;23;20188;-85
2022/08/31 11:05:38;;;;;;;1.30;0.70;;;;;;;;;;6187741;23;20179;-84
2022/08/31 11:08:20;;;;;;;1.73;1.00;;;;;;;;;;6192001;23;20231;-85
2022/08/31 11:10:52;;;;;;;0.80;0.60;;;;;;;;;;6191098;23;20201;-85
2022/08/31 11:13:37;;;;;;;1.23;1.10;;;;;;;;;;6189569;23;20223;-85
2022/08/31 11:16:16;;;;;;;1.67;1.00;;;;;;;;;;6185747;23;20180;-85
2022/08/31 11:18:53;;;;;;;1.60;1.10;;;;;;;;;;6186986;23;20192;-85
2022/08/31 11:21:44;;;;;;;1.80;0.83;;;;;;;;;;6213520;23;20216;-86
2022/08/31 11:24:35;;;;;;;2.67;1.03;;;;;;;;;;6188544;23;20190;-86
2022/08/31 11:27:24;;;;;;;1.10;0.90;;;;;;;;;;6188352;23;20175;-86
2022/08/31 11:29:56;;;;;;;1.20;1.10;;;;;;;;;;6187615;23;20175;-85
2022/08/31 11:32:35;;;;;;;1.33;0.93;;;;;;;;;;6187658;23;20196;-86
2022/08/31 11:35:09;;;;;;;2.83;1.00;;;;;;;;;;6186938;23;20210;-85
2022/08/31 11:37:53;;;;;;;1.37;0.83;;;;;;;;;;6187350;23;20178;-86
2022/08/31 11:40:43;;;;;;;1.30;0.70;;;;;;;;;;6189207;23;20210;-86
2022/08/31 11:43:14;;;;;;;0.40;0.40;;;;;;;;;;6189590;23;20300;-86
2022/08/31 11:45:43;;;;;;;2.77;1.43;;;;;;;;;;6188124;23;20174;-85
2022/08/31 11:48:37;;;;;;;0.90;0.90;;;;;;;;;;6192738;23;20216;-84
2022/08/31 11:51:07;;;;;;;1.43;1.00;;;;;;;;;;6189251;23;20195;-85
2022/08/31 11:53:42;;;;;;;1.90;0.87;;;;;;;;;;6191289;23;20185;-85
2022/08/31 11:56:14;;;;;;;1.37;0.90;;;;;;;;;;6187118;23;20234;-86
2022/08/31 11:58:46;;;;;;;1.10;0.90;;;;;;;;;;6194215;23;20194;-87
2022/08/31 12:01:32;;;;;;;1.60;0.70;;;;;;;;;;6193750;23;20241;-87
2022/08/31 12:04:05;;;;;;;0.90;0.90;;;;;;;;;;6192291;23;20181;-86
2022/08/31 12:07:07;;;;;;;3.17;0.83;;;;;;;;;;6188551;23;20182;-85
2022/08/31 12:09:51;;;;;;;2.00;1.00;;;;;;;;;;6186278;23;20186;-86
2022/08/31 12:12:30;;;;;;;0.70;0.70;;;;;;;;;;6184403;23;20195;-84
2022/08/31 12:15:16;;;;;;;1.00;0.90;;;;;;;;;;6186625;23;20174;-85
2022/08/31 12:17:56;;;;;;;0.83;0.80;;;;;;;;;;6192456;23;20209;-86
2022/08/31 12:20:31;;;;;;;2.87;1.50;;;;;;;;;;6188022;23;20199;-86
2022/08/31 12:26:05;;;;;;;1.70;0.77;;;;;;;;;;6188055;23;20184;-86
2022/08/31 12:28:40;;;;;;;0.90;0.90;;;;;;;;;;6189920;23;20178;-86
2022/08/31 12:34:06;;;;;;;1.83;0.70;;;;;;;;;;6191349;23;20184;-87
2022/08/31 12:36:40;;;;;;;0.97;0.90;;;;;;;;;;6195419;23;20230;-87
2022/08/31 12:39:11;;;;;;;0.93;0.87;;;;;;;;;;6189696;23;20182;-87
2022/08/31 12:41:46;;;;;;;1.07;1.00;;;;;;;;;;6189939;23;20182;-87
2022/08/31 12:44:19;;;;;;;0.70;0.70;;;;;;;;;;6189488;23;20273;-86
2022/08/31 12:47:06;;;;;;;1.07;1.07;;;;;;;;;;6191768;23;20186;-88
2022/08/31 12:49:42;;;;;;;0.57;0.57;;;;;;;;;;6194771;23;20179;-88
2022/08/31 12:52:18;;;;;;;1.03;0.93;;;;;;;;;;6191817;23;20313;-87
2022/08/31 12:54:54;;;;;;;0.80;0.80;;;;;;;;;;6195604;23;20180;-87
2022/08/31 12:57:32;;;;;;;4.23;1.50;;;;;;;;;;6191938;23;20174;-87
2022/08/31 13:00:05;;;;;;;0.97;0.97;;;;;;;;;;6193542;23;20175;-87
2022/08/31 13:02:40;;;;;;;1.67;1.20;;;;;;;;;;6191201;23;20193;-86
2022/08/31 13:05:21;;;;;;;1.17;0.70;;;;;;;;;;6190381;23;20266;-88
2022/08/31 13:07:52;;;;;;;1.67;0.90;;;;;;;;;;6194812;23;20183;-87
2022/08/31 13:10:35;;;;;;;0.77;0.57;;;;;;;;;;6219908;23;20168;-87
2022/08/31 13:13:07;;;;;;;0.83;0.80;;;;;;;;;;6194402;23;20218;-87
2022/08/31 13:15:40;;;;;;;1.10;0.53;;;;;;;;;;6192284;23;20250;-88
2022/08/31 13:18:10;;;;;;;4.20;1.00;;;;;;;;;;6192925;23;20180;-87
2022/08/31 13:20:45;;;;;;;1.90;0.83;;;;;;;;;;6192867;23;20180;-88
2022/08/31 13:23:23;;;;;;;0.90;0.90;;;;;;;;;;6190944;23;20175;-87
2022/08/31 13:26:00;;;;;;;0.87;0.87;;;;;;;;;;6189290;23;20226;-89
2022/08/31 13:28:31;;;;;;;2.00;0.90;;;;;;;;;;6191686;23;20183;-89
2022/08/31 13:31:02;;;;;;;0.87;0.83;;;;;;;;;;6190374;23;20182;-88
2022/08/31 13:33:33;;;;;;;1.40;1.00;;;;;;;;;;6188655;23;20200;-87
2022/08/31 13:36:09;;;;;;;0.70;0.70;;;;;;;;;;6189440;23;20203;-87
2022/08/31 13:38:44;;;;;;;1.67;0.80;;;;;;;;;;6187409;23;20274;-88
2022/08/31 13:41:23;;;;;;;0.63;0.47;;;;;;;;;;6188674;23;20180;-87
2022/08/31 13:43:57;;;;;;;1.90;1.07;;;;;;;;;;6190758;23;20220;-88
2022/08/31 13:46:31;;;;;;;1.87;0.60;;;;;;;;;;6190412;23;20261;-87
2022/08/31 13:49:33;;;;;;;0.70;0.70;;;;;;;;;;6189899;23;20171;-88
2022/08/31 13:52:06;;;;;;;2.97;1.00;;;;;;;;;;6192066;23;20275;-87
2022/08/31 13:54:36;;;;;;;0.90;0.90;;;;;;;;;;6190809;23;20185;-89
2022/08/31 13:57:12;;;;;;;1.10;0.90;;;;;;;;;;6188438;23;20251;-87
2022/08/31 13:59:41;;;;;;;2.73;1.03;;;;;;;;;;6186922;23;20184;-86
2022/08/31 14:02:30;;;;;;;0.87;0.87;;;;;;;;;;6188106;23;20180;-85
2022/08/31 14:05:07;;;;;;;2.07;1.23;;;;;;;;;;6214794;23;20209;-84
2022/08/31 14:07:55;;;;;;;0.80;0.80;;;;;;;;;;6189410;23;20182;-84
2022/08/31 14:10:27;;;;;;;1.07;0.90;;;;;;;;;;6189861;23;20184;-84
2022/08/31 14:12:58;;;;;;;2.77;1.00;;;;;;;;;;6189547;23;20201;-84
2022/08/31 14:15:35;;;;;;;0.60;0.60;;;;;;;;;;6189794;23;20203;-84
2022/08/31 14:18:16;;;;;;;1.90;1.20;;;;;;;;;;6190159;23;20175;-84
2022/08/31 14:21:14;;;;;;;0.77;0.77;;;;;;;;;;6189908;23;20184;-84
2022/08/31 14:24:07;;;;;;;0.87;0.87;;;;;;;;;;6190143;23;20235;-82
2022/08/31 14:26:40;;;;;;;3.23;1.63;;;;;;;;;;6190142;23;20183;-83
2022/08/31 14:29:10;;;;;;;2.97;1.20;;;;;;;;;;6190166;23;20176;-83
2022/08/31 14:31:41;;;;;;;1.20;0.50;;;;;;;;;;6189418;23;20181;-83
2022/08/31 14:34:20;;;;;;;0.53;0.50;;;;;;;;;;6190094;23;20225;-83
2022/08/31 14:36:52;;;;;;;1.87;1.00;;;;;;;;;;6189716;23;20198;-84
2022/08/31 14:39:25;;;;;;;1.00;0.60;;;;;;;;;;6189152;23;20181;-83
2022/08/31 14:41:54;;;;;;;0.47;0.47;;;;;;;;;;6189763;23;20179;-83
2022/08/31 14:44:24;;;;;;;4.90;0.83;;;;;;;;;;6189447;23;20224;-84
2022/08/31 14:47:11;;;;;;;1.97;0.87;;;;;;;;;;5131681;27;20538;-83
2022/08/31 14:49:44;;;;;;;0.83;0.60;;;;;;;;;;5130336;27;20197;-84
2022/08/31 14:52:14;;;;;;;0.90;0.90;;;;;;;;;;5130452;28;20205;-83
2022/08/31 14:54:44;;;;;;;2.07;0.60;;;;;;;;;;5130141;28;20199;-83
2022/08/31 14:57:14;;;;;;;0.40;0.40;;;;;;;;;;5130499;28;20195;-83
2022/08/31 14:59:45;;;;;;;0.53;0.53;;;;;;;;;;5133808;27;20210;-83
2022/08/31 15:02:20;;;;;;;1.40;0.83;;;;;;;;;;5164895;27;20321;-83
2022/08/31 15:04:51;;;;;;;0.77;0.77;;;;;;;;;;5130126;28;20203;-83
2022/08/31 15:07:20;;;;;;;0.60;0.60;;;;;;;;;;5129980;27;20205;-83
2022/08/31 15:09:48;;;;;;;0.90;0.80;;;;;;;;;;5131056;27;20194;-84
2022/08/31 15:12:18;;;;;;;1.17;0.57;;;;;;;;;;5129860;28;20208;-84
2022/08/31 15:14:46;;;;;;;3.03;0.93;;;;;;;;;;5129897;28;20217;-83
2022/08/31 15:17:19;;;;;;;2.50;0.90;;;;;;;;;;5164645;27;20195;-84
2022/08/31 15:19:53;;;;;;;1.67;0.90;;;;;;;;;;5130125;28;20205;-83
2022/08/31 15:22:24;;;;;;;2.30;1.10;;;;;;;;;;5129604;28;20656;-83
2022/08/31 15:24:53;;;;;;;0.50;0.50;;;;;;;;;;5130766;27;20204;-83
2022/08/31 15:27:24;;;;;;;0.83;0.50;;;;;;;;;;5117971;28;20215;-84
2022/08/31 15:30:00;;;;;;;0.50;0.50;;;;;;;;;;5129516;28;20204;-84
2022/08/31 15:32:30;;;;;;;1.60;0.80;;;;;;;;;;5129875;28;20195;-84
2022/08/31 15:35:00;;;;;;;0.93;0.67;;;;;;;;;;5125820;28;20229;-84
2022/08/31 15:37:31;;;;;;;0.50;0.50;;;;;;;;;;5109408;28;20204;-84
2022/08/31 15:40:00;;;;;;;0.30;0.30;;;;;;;;;;5109396;28;20197;-83
2022/08/31 15:42:30;;;;;;;1.33;0.73;;;;;;;;;;5109081;28;20199;-83
2022/08/31 15:44:59;;;;;;;1.80;1.03;;;;;;;;;;5108960;28;20228;-84